Time,TemperatureF,DewpointF,PressureIn,WindDirection,WindDirectionDegrees,WindSpeedMPH,WindSpeedGustMPH,Humidity,HourlyPrecipIn,Conditions,Clouds,dailyrainin,SoftwareType,DateUTC
2013-08-19 00:09:00,80.5,65.2,29.95,SSE,162,0.0,5.0,59,0.00,,,0.00,WUHU216DAVISVP2,2013-08-19 05:09:00,
2013-08-19 00:39:00,79.4,64.7,29.95,SSE,162,0.0,2.0,60,0.00,,,0.00,WUHU216DAVISVP2,2013-08-19 05:39:00,
2013-08-19 01:09:00,78.4,64.2,29.95,SSE,162,0.0,3.0,61,0.00,,,0.00,WUHU216DAVISVP2,2013-08-19 06:09:00,
2013-08-19 01:39:00,77.3,64.5,29.95,SSE,162,0.0,1.0,64,0.00,,,0.00,WUHU216DAVISVP2,2013-08-19 06:39:00,
2013-08-19 02:09:00,75.6,64.2,29.95,SSE,162,0.0,0.0,67,0.00,,,0.00,WUHU216DAVISVP2,2013-08-19 07:09:00,
2013-08-19 02:39:00,74.3,64.2,29.95,SSE,162,0.0,0.0,70,0.00,,,0.00,WUHU216DAVISVP2,2013-08-19 07:39:00,
2013-08-19 03:09:00,71.9,63.4,29.95,SSE,162,0.0,0.0,74,0.00,,,0.00,WUHU216DAVISVP2,2013-08-19 08:09:00,
2013-08-19 03:39:00,72.1,64.0,29.95,SSE,162,0.0,1.0,75,0.00,,,0.00,WUHU216DAVISVP2,2013-08-19 08:39:00,
2013-08-19 04:09:00,72.0,63.9,29.95,SW,230,0.0,1.1,75,0.00,,,0.00,WUHU216DAVISVP2,2013-08-19 09:09:00,
2013-08-19 04:39:00,70.2,63.2,29.95,WSW,250,0.0,0.0,78,0.00,,,0.00,WUHU216DAVISVP2,2013-08-19 09:39:00,
2013-08-19 05:09:00,69.8,63.2,29.95,West,272,0.0,1.1,79,0.00,,,0.00,WUHU216DAVISVP2,2013-08-19 10:09:00,
2013-08-19 05:39:00,69.5,63.2,29.95,WNW,301,0.0,1.0,80,0.00,,,0.00,WUHU216DAVISVP2,2013-08-19 10:39:00,
2013-08-19 06:09:00,69.2,63.0,29.96,WNW,301,0.0,0.0,80,0.00,,,0.00,WUHU216DAVISVP2,2013-08-19 11:09:00,
2013-08-19 06:39:00,68.9,63.3,29.96,NW,308,0.0,1.0,82,0.00,,,0.00,WUHU216DAVISVP2,2013-08-19 11:39:00,
2013-08-19 07:09:00,68.7,63.1,29.97,North,358,0.0,2.2,82,0.00,,,0.00,WUHU216DAVISVP2,2013-08-19 12:09:00,
2013-08-19 07:39:00,68.9,63.7,29.98,North,358,2.2,2.2,83,0.00,,,0.00,WUHU216DAVISVP2,2013-08-19 12:39:00,
2013-08-19 08:09:00,71.0,65.4,29.99,North,2,0.0,2.2,82,0.00,,,0.00,WUHU216DAVISVP2,2013-08-19 13:09:00,
2013-08-19 08:39:00,74.8,67.0,30.00,NE,45,0.0,1.1,76,0.00,,,0.00,WUHU216DAVISVP2,2013-08-19 13:39:00,
2013-08-19 09:09:00,78.2,67.5,30.00,ESE,112,0.0,2.2,69,0.00,,,0.00,WUHU216DAVISVP2,2013-08-19 14:09:00,
2013-08-19 09:39:00,81.9,67.5,30.01,SSE,150,0.0,4.4,61,0.00,,,0.00,WUHU216DAVISVP2,2013-08-19 14:39:00,
2013-08-19 10:09:00,84.6,67.0,30.01,ESE,112,0.0,3.3,55,0.00,,,0.00,WUHU216DAVISVP2,2013-08-19 15:09:00,
2013-08-19 10:39:00,86.4,66.5,30.01,ESE,116,4.4,8.0,51,0.00,,,0.00,WUHU216DAVISVP2,2013-08-19 15:39:00,
2013-08-19 11:09:00,88.6,65.5,30.01,SE,137,3.3,9.0,46,0.00,,,0.00,WUHU216DAVISVP2,2013-08-19 16:09:00,
2013-08-19 11:39:00,89.8,65.9,30.01,SSE,164,5.5,6.6,45,0.00,,,0.00,WUHU216DAVISVP2,2013-08-19 16:39:00,
2013-08-19 12:09:00,91.0,64.3,30.00,South,172,4.4,7.0,41,0.00,,,0.00,WUHU216DAVISVP2,2013-08-19 17:09:00,
2013-08-19 12:39:00,92.1,64.5,29.99,SE,143,1.1,10.0,40,0.00,,,0.00,WUHU216DAVISVP2,2013-08-19 17:39:00,
2013-08-19 13:09:00,92.9,63.0,29.98,East,81,1.1,8.8,37,0.00,,,0.00,WUHU216DAVISVP2,2013-08-19 18:09:00,
2013-08-19 13:40:00,92.1,63.0,29.97,East,94,0.0,9.9,38,0.00,,,0.00,WUHU216DAVISVP2,2013-08-19 18:40:00,
2013-08-19 14:10:00,93.3,62.5,29.96,East,85,2.2,8.8,36,0.00,,,0.00,WUHU216DAVISVP2,2013-08-19 19:10:00,
2013-08-19 14:40:00,93.5,62.7,29.95,SSE,152,1.1,10.0,36,0.00,,,0.00,WUHU216DAVISVP2,2013-08-19 19:40:00,
2013-08-19 15:10:00,94.4,61.0,29.94,NNW,340,5.5,7.7,33,0.00,,,0.00,WUHU216DAVISVP2,2013-08-19 20:10:00,
2013-08-19 15:40:00,94.4,61.0,29.92,SSE,165,3.3,7.0,33,0.00,,,0.00,WUHU216DAVISVP2,2013-08-19 20:40:00,
2013-08-19 16:10:00,96.8,60.5,29.90,ESE,115,1.1,6.0,30,0.00,,,0.00,WUHU216DAVISVP2,2013-08-19 21:10:00,
2013-08-19 16:40:00,94.9,59.7,29.90,South,176,2.2,7.0,31,0.00,,,0.00,WUHU216DAVISVP2,2013-08-19 21:40:00,
2013-08-19 17:10:00,95.6,58.5,29.89,NE,54,1.1,6.0,29,0.00,,,0.00,WUHU216DAVISVP2,2013-08-19 22:10:00,
2013-08-19 17:40:00,97.5,57.1,29.87,NNE,26,1.1,8.8,26,0.00,,,0.00,WUHU216DAVISVP2,2013-08-19 22:40:00,
2013-08-19 18:10:00,97.7,57.3,29.87,ESE,105,2.2,8.0,26,0.00,,,0.00,WUHU216DAVISVP2,2013-08-19 23:10:00,
2013-08-19 18:40:00,95.5,56.4,29.87,ESE,122,2.2,5.5,27,0.00,,,0.00,WUHU216DAVISVP2,2013-08-19 23:40:00,
2013-08-19 19:10:00,95.3,57.3,29.86,ENE,70,1.1,8.0,28,0.00,,,0.00,WUHU216DAVISVP2,2013-08-20 00:10:00,
2013-08-19 19:40:00,93.1,56.3,29.86,NE,45,2.2,6.6,29,0.00,,,0.00,WUHU216DAVISVP2,2013-08-20 00:40:00,
2013-08-19 20:10:00,90.4,56.7,29.87,NE,39,0.0,2.0,32,0.00,,,0.00,WUHU216DAVISVP2,2013-08-20 01:10:00,
2013-08-19 20:40:00,87.5,57.4,29.87,NE,39,0.0,1.1,36,0.00,,,0.00,WUHU216DAVISVP2,2013-08-20 01:40:00,
2013-08-19 21:10:00,85.4,57.8,29.88,NE,39,0.0,1.1,39,0.00,,,0.00,WUHU216DAVISVP2,2013-08-20 02:10:00,
2013-08-19 21:40:00,84.0,57.9,29.88,NE,39,0.0,1.1,41,0.00,,,0.00,WUHU216DAVISVP2,2013-08-20 02:40:00,
2013-08-19 22:10:00,83.3,58.7,29.90,ESE,118,2.2,5.5,43,0.00,,,0.00,WUHU216DAVISVP2,2013-08-20 03:10:00,
2013-08-19 22:40:00,83.8,64.1,29.91,SE,128,3.3,8.8,51,0.00,,,0.00,WUHU216DAVISVP2,2013-08-20 03:40:00,
2013-08-19 23:10:00,82.9,65.4,29.92,SE,137,3.3,8.8,55,0.00,,,0.00,WUHU216DAVISVP2,2013-08-20 04:10:00,
2013-08-19 23:40:00,81.8,67.4,29.92,SE,135,5.5,7.7,61,0.00,,,0.00,WUHU216DAVISVP2,2013-08-20 04:40:00,